createdAt,value
2022-10-15T00:01:49.986Z,20.30
2022-10-15T00:04:17.888Z,20.23
2022-10-15T00:06:45.685Z,20.10
2022-10-15T00:09:13.385Z,19.93
2022-10-15T00:11:41.168Z,20.27
2022-10-15T00:14:10.263Z,19.97
2022-10-15T00:16:38.294Z,20.37
2022-10-15T00:19:06.433Z,19.93
2022-10-15T00:21:34.215Z,19.80
2022-10-15T00:24:01.986Z,20.23
2022-10-15T00:26:31.167Z,20.20
2022-10-15T00:29:01.283Z,19.63
2022-10-15T00:31:32.662Z,20.33
2022-10-15T00:34:02.595Z,19.30
2022-10-15T00:36:32.366Z,21.47
2022-10-15T00:39:00.297Z,19.63
2022-10-15T00:41:32.580Z,20.37
2022-10-15T00:44:02.122Z,20.50
2022-10-15T00:46:34.955Z,20.70
2022-10-15T00:49:12.606Z,20.70
2022-10-15T00:51:45.499Z,20.83
2022-10-15T00:54:13.822Z,21.73
2022-10-15T00:56:44.651Z,21.37
2022-10-15T00:59:13.704Z,22.27
2022-10-15T01:01:43.102Z,20.97
2022-10-15T01:04:12.311Z,22.27
2022-10-15T01:06:40.913Z,22.17
2022-10-15T01:09:08.784Z,22.03
2022-10-15T01:11:44.569Z,23.03
2022-10-15T01:14:37.456Z,24.30
2022-10-15T01:17:14.703Z,24.33
2022-10-15T01:20:20.253Z,23.30
2022-10-15T01:23:03.718Z,23.40
2022-10-15T01:25:45.334Z,23.20
2022-10-15T01:28:24.046Z,24.40
2022-10-15T01:30:59.902Z,25.37
2022-10-15T01:33:36.838Z,23.87
2022-10-15T01:36:13.911Z,25.07
2022-10-15T01:38:52.605Z,24.83
2022-10-15T01:41:28.892Z,24.87
2022-10-15T01:44:01.813Z,24.97
2022-10-15T01:46:36.220Z,25.20
2022-10-15T01:49:05.828Z,25.50
2022-10-15T01:51:38.024Z,26.07
2022-10-15T01:54:08.565Z,24.17
2022-10-15T01:56:38.257Z,25.37
2022-10-15T01:59:08.063Z,25.07
2022-10-15T02:01:37.225Z,24.10
2022-10-15T02:04:22.202Z,24.93
2022-10-15T02:06:54.081Z,25.50
2022-10-15T02:09:28.811Z,24.37
2022-10-15T02:12:09.052Z,24.93
2022-10-15T02:14:45.398Z,25.43
2022-10-15T02:17:16.557Z,26.27
2022-10-15T02:19:50.068Z,24.93
2022-10-15T02:22:20.901Z,26.10
2022-10-15T02:24:55.734Z,25.80
2022-10-15T02:27:24.802Z,26.07
2022-10-15T02:29:54.160Z,26.60
2022-10-15T02:32:24.684Z,25.07
2022-10-15T02:34:54.329Z,26.00
2022-10-15T02:37:25.244Z,27.50
2022-10-15T02:39:53.440Z,25.90
2022-10-15T02:42:21.566Z,25.57
2022-10-15T02:44:49.544Z,26.57
2022-10-15T02:47:17.368Z,25.20
2022-10-15T02:49:46.532Z,26.27
2022-10-15T02:52:14.292Z,28.10
2022-10-15T02:54:41.993Z,26.70
2022-10-15T02:57:09.928Z,25.93
2022-10-15T02:59:37.656Z,25.63
2022-10-15T03:02:05.511Z,26.97
2022-10-15T03:04:33.301Z,26.27
2022-10-15T03:07:02.426Z,26.07
2022-10-15T03:09:30.144Z,25.30
2022-10-15T03:11:57.883Z,26.40
2022-10-15T03:14:25.770Z,26.47
2022-10-15T03:16:53.586Z,25.43
2022-10-15T03:19:21.343Z,25.30
2022-10-15T03:21:49.101Z,25.37
2022-10-15T03:24:18.216Z,24.77
2022-10-15T03:26:45.961Z,25.07
2022-10-15T03:29:13.838Z,26.03
2022-10-15T03:31:41.595Z,25.97
2022-10-15T03:34:09.526Z,25.87
2022-10-15T03:36:37.301Z,25.23
2022-10-15T03:39:05.858Z,27.53
2022-10-15T03:41:35.070Z,25.70
2022-10-15T03:44:03.042Z,25.60
2022-10-15T03:46:30.816Z,25.33
2022-10-15T03:48:58.580Z,25.33
2022-10-15T03:51:27.961Z,27.03
2022-10-15T03:53:57.016Z,26.47
2022-10-15T03:56:24.811Z,26.70
2022-10-15T03:58:53.909Z,27.07
2022-10-15T04:01:21.761Z,27.03
2022-10-15T04:03:53.176Z,25.63
2022-10-15T04:06:21.239Z,26.53
2022-10-15T04:08:49.086Z,27.10
2022-10-15T04:11:16.898Z,26.07
2022-10-15T04:13:44.767Z,26.13
2022-10-15T04:16:13.897Z,26.10
2022-10-15T04:18:41.713Z,25.53
2022-10-15T04:21:11.023Z,26.20
2022-10-15T04:23:39.115Z,26.43
2022-10-15T04:26:07.538Z,25.50
2022-10-15T04:28:35.364Z,25.47
2022-10-15T04:31:03.575Z,25.23
2022-10-15T04:33:32.690Z,25.30
2022-10-15T04:36:02.176Z,26.00
2022-10-15T04:38:30.420Z,26.13
2022-10-15T04:41:03.076Z,25.10
2022-10-15T04:43:31.206Z,25.50
2022-10-15T04:45:59.724Z,24.93
2022-10-15T04:48:29.852Z,25.43
2022-10-15T04:51:04.496Z,24.80
2022-10-15T04:53:32.480Z,24.40
2022-10-15T04:56:02.079Z,24.70
2022-10-15T04:58:31.333Z,25.27
2022-10-15T05:01:02.185Z,24.57
2022-10-15T05:03:30.294Z,24.53
2022-10-15T05:06:03.308Z,25.50
2022-10-15T05:08:31.595Z,24.90
2022-10-15T05:11:01.824Z,24.77
2022-10-15T05:13:29.793Z,26.30
2022-10-15T05:15:58.000Z,25.00
2022-10-15T05:18:25.841Z,27.23
2022-10-15T05:20:53.603Z,26.20
2022-10-15T05:23:22.707Z,27.03
2022-10-15T05:25:53.211Z,25.63
2022-10-15T05:28:22.010Z,25.80
2022-10-15T05:30:49.783Z,25.20
2022-10-15T05:33:17.519Z,26.07
2022-10-15T05:35:45.249Z,24.23
2022-10-15T05:38:13.041Z,25.07
2022-10-15T05:40:42.093Z,24.07
2022-10-15T05:43:09.910Z,24.37
2022-10-15T05:45:37.636Z,23.23
2022-10-15T05:48:06.060Z,23.07
2022-10-15T05:50:33.878Z,24.00
2022-10-15T05:53:01.595Z,23.30
2022-10-15T05:55:29.344Z,22.67
2022-10-15T05:58:03.078Z,23.03
2022-10-15T06:00:31.235Z,22.60
2022-10-15T06:02:59.567Z,22.40
2022-10-15T06:05:27.380Z,22.50
2022-10-15T06:07:55.173Z,23.40
2022-10-15T06:10:23.421Z,22.83
2022-10-15T06:12:51.766Z,23.87
2022-10-15T06:15:21.123Z,22.37
2022-10-15T06:17:48.856Z,21.83
2022-10-15T06:20:16.736Z,21.93
2022-10-15T06:22:44.475Z,21.43
2022-10-15T06:25:12.215Z,20.80
2022-10-15T06:27:39.964Z,21.10
2022-10-15T06:30:09.347Z,20.67
2022-10-15T06:32:38.427Z,20.87
2022-10-15T06:35:07.207Z,20.20
2022-10-15T06:37:34.979Z,20.67
2022-10-15T06:40:02.749Z,20.30
2022-10-15T06:42:30.516Z,20.40
2022-10-15T06:44:58.276Z,21.13
2022-10-15T06:47:26.329Z,22.27
2022-10-15T06:49:55.691Z,22.63
2022-10-15T06:52:24.997Z,25.20
2022-10-15T06:54:53.019Z,24.57
2022-10-15T06:57:21.263Z,25.77
2022-10-15T06:59:49.207Z,27.47
2022-10-15T07:02:17.743Z,27.20
2022-10-15T07:04:45.921Z,27.63
2022-10-15T07:07:15.724Z,27.43
2022-10-15T07:09:43.580Z,29.83
2022-10-15T07:12:11.324Z,30.37
2022-10-15T07:14:41.651Z,29.97
2022-10-15T07:17:10.403Z,29.37
2022-10-15T07:19:38.156Z,29.40
2022-10-15T07:22:06.002Z,29.57
2022-10-15T07:24:35.107Z,29.10
2022-10-15T07:27:08.099Z,25.47
2022-10-15T07:29:46.181Z,22.80
2022-10-15T07:32:13.972Z,22.33
2022-10-15T07:34:41.720Z,20.93
2022-10-15T07:37:09.496Z,18.77
2022-10-15T07:39:40.856Z,19.07
2022-10-15T07:42:09.688Z,18.53
2022-10-15T07:44:37.543Z,17.70
2022-10-15T07:47:05.293Z,19.23
2022-10-15T07:49:33.300Z,18.90
2022-10-15T07:52:01.083Z,18.43
2022-10-15T07:54:28.825Z,17.43
2022-10-15T07:56:57.904Z,16.43
2022-10-15T07:59:25.708Z,18.47
2022-10-15T08:01:53.453Z,19.53
2022-10-15T08:04:21.354Z,18.20
2022-10-15T08:06:49.723Z,19.10
2022-10-15T08:09:17.838Z,19.47
2022-10-15T08:11:45.569Z,20.57
2022-10-15T08:14:14.746Z,21.40
2022-10-15T08:16:42.538Z,20.87
2022-10-15T08:19:10.291Z,21.87
2022-10-15T08:21:38.060Z,22.27
2022-10-15T08:24:06.779Z,22.10
2022-10-15T08:26:34.784Z,23.27
2022-10-15T08:29:03.069Z,23.63
2022-10-15T08:31:32.608Z,24.13
2022-10-15T08:34:01.283Z,23.83
2022-10-15T08:36:29.323Z,23.27
2022-10-15T08:38:57.127Z,23.80
2022-10-15T08:41:29.872Z,23.73
2022-10-15T08:43:57.880Z,23.30
2022-10-15T08:46:32.519Z,24.60
2022-10-15T08:49:02.667Z,24.23
2022-10-15T08:51:39.380Z,25.07
2022-10-15T08:54:10.923Z,23.73
2022-10-15T08:56:41.406Z,24.17
2022-10-15T08:59:18.211Z,22.47
2022-10-15T09:01:51.204Z,22.33
2022-10-15T09:04:28.876Z,21.13
2022-10-15T09:07:04.863Z,17.77
2022-10-15T09:09:41.413Z,17.67
2022-10-15T09:12:22.369Z,17.70
2022-10-15T09:14:50.796Z,18.33
2022-10-15T09:17:23.497Z,19.23
2022-10-15T09:19:55.492Z,19.57
2022-10-15T09:22:26.728Z,20.10
2022-10-15T09:24:55.004Z,21.40
2022-10-15T09:27:31.680Z,20.90
2022-10-15T09:30:06.884Z,22.07
2022-10-15T09:32:38.242Z,22.53
2022-10-15T09:35:16.948Z,22.70
2022-10-15T09:37:51.783Z,21.07
2022-10-15T09:40:30.939Z,21.73
2022-10-15T09:43:01.130Z,20.53
2022-10-15T09:45:28.977Z,21.37
2022-10-15T09:48:00.723Z,21.17
2022-10-15T09:50:41.367Z,20.93
2022-10-15T09:53:18.711Z,20.77
2022-10-15T09:55:52.984Z,20.37
2022-10-15T09:58:26.406Z,18.77
2022-10-15T10:00:57.504Z,18.40
2022-10-15T10:03:27.284Z,18.67
2022-10-15T10:06:04.318Z,16.40
2022-10-15T10:08:36.291Z,15.17
2022-10-15T10:11:07.331Z,17.97
2022-10-15T10:13:40.387Z,14.50
2022-10-15T10:16:10.896Z,15.13
2022-10-15T10:18:39.154Z,14.03
2022-10-15T10:21:23.340Z,13.30
2022-10-15T10:23:51.127Z,12.73
2022-10-15T10:26:19.359Z,11.50
2022-10-15T10:28:56.646Z,11.50
2022-10-15T10:31:31.063Z,10.70
2022-10-15T10:34:02.320Z,10.73
2022-10-15T10:36:34.293Z,9.97
2022-10-15T10:39:04.895Z,9.50
2022-10-15T10:41:58.167Z,10.10
2022-10-15T10:44:30.800Z,9.83
2022-10-15T10:47:16.269Z,9.70
2022-10-15T10:49:45.892Z,8.83
2022-10-15T10:52:26.584Z,9.30
2022-10-15T10:55:02.776Z,9.50
2022-10-15T10:57:44.196Z,9.37
2022-10-15T11:00:17.255Z,9.10
2022-10-15T11:02:45.220Z,9.77
2022-10-15T11:05:14.005Z,8.10
2022-10-15T11:07:51.527Z,8.90
2022-10-15T11:10:25.480Z,8.43
2022-10-15T11:13:06.752Z,8.43
2022-10-15T11:15:46.338Z,8.80
2022-10-15T11:18:28.844Z,7.97
2022-10-15T11:21:07.307Z,8.97
2022-10-15T11:23:56.400Z,9.13
2022-10-15T11:27:06.535Z,10.13
2022-10-15T11:29:42.832Z,10.23
2022-10-15T11:32:25.323Z,10.27
2022-10-15T11:35:09.848Z,10.47
2022-10-15T11:37:50.227Z,10.23
2022-10-15T11:40:32.486Z,10.10
2022-10-15T11:43:04.323Z,8.63
2022-10-15T11:45:53.992Z,9.67
2022-10-15T11:48:33.464Z,8.90
2022-10-15T11:51:07.173Z,8.83
2022-10-15T11:54:09.455Z,8.40
2022-10-15T11:56:44.149Z,8.63
2022-10-15T11:59:24.853Z,8.33
2022-10-15T12:01:55.960Z,7.83
2022-10-15T12:04:35.207Z,8.20
2022-10-15T12:07:06.040Z,7.30
2022-10-15T12:09:39.019Z,7.33
2022-10-15T12:12:13.057Z,7.60
2022-10-15T12:14:44.930Z,7.73
2022-10-15T12:17:18.232Z,7.60
2022-10-15T12:19:49.842Z,7.73
2022-10-15T12:22:34.345Z,7.20
2022-10-15T12:25:02.840Z,7.57
2022-10-15T12:27:37.025Z,6.90
2022-10-15T12:30:26.274Z,7.07
2022-10-15T12:32:54.464Z,6.47
2022-10-15T12:35:39.329Z,6.07
2022-10-15T12:38:20.729Z,5.60
2022-10-15T12:40:56.124Z,5.40
2022-10-15T12:43:25.889Z,4.40
2022-10-15T12:45:55.919Z,4.23
2022-10-15T12:48:31.766Z,3.47
2022-10-15T12:51:38.338Z,2.60
2022-10-15T12:54:33.975Z,2.20
2022-10-15T12:57:04.656Z,1.93
2022-10-15T12:59:58.154Z,1.50
2022-10-15T13:02:39.033Z,1.27
2022-10-15T13:05:08.695Z,1.10
2022-10-15T13:07:40.651Z,0.63
2022-10-15T13:10:20.339Z,0.60
2022-10-15T13:12:54.635Z,0.80
2022-10-15T13:15:26.116Z,0.93
2022-10-15T13:17:55.372Z,1.37
2022-10-15T13:20:33.320Z,0.97
2022-10-15T13:23:30.009Z,0.83
2022-10-15T13:26:12.994Z,0.70
2022-10-15T13:28:42.500Z,0.77
2022-10-15T13:31:17.047Z,0.70
2022-10-15T13:33:48.842Z,0.90
2022-10-15T13:36:22.180Z,0.83
2022-10-15T13:38:58.192Z,0.67
2022-10-15T13:41:32.317Z,1.10
2022-10-15T13:44:01.154Z,0.90
2022-10-15T13:46:33.195Z,0.80
2022-10-15T13:49:03.305Z,0.90
2022-10-15T13:51:36.055Z,0.70
2022-10-15T13:54:10.338Z,0.67
2022-10-15T13:56:38.474Z,1.00
2022-10-15T13:59:06.730Z,0.70
2022-10-15T14:01:36.880Z,0.70
2022-10-15T14:04:05.339Z,0.80
2022-10-15T14:06:35.244Z,0.80
2022-10-15T14:09:14.839Z,0.70
2022-10-15T14:11:42.671Z,0.67
2022-10-15T14:14:29.231Z,0.90
2022-10-15T14:16:59.963Z,0.83
2022-10-15T14:19:30.608Z,0.50
2022-10-15T14:21:59.834Z,0.77
2022-10-15T14:24:32.884Z,0.73
2022-10-15T14:27:06.415Z,0.50
2022-10-15T14:29:40.512Z,0.90
2022-10-15T14:32:25.500Z,0.77
2022-10-15T14:34:55.048Z,0.60
2022-10-15T14:37:31.235Z,0.87
2022-10-15T14:40:10.821Z,0.80
2022-10-15T14:42:40.372Z,1.07
2022-10-15T14:45:20.269Z,0.80
2022-10-15T14:47:51.327Z,0.87
2022-10-15T14:50:20.172Z,0.80
2022-10-15T14:52:50.707Z,1.20
2022-10-15T14:55:33.050Z,0.80
2022-10-15T14:58:03.171Z,0.70
2022-10-15T15:00:34.402Z,1.00
2022-10-15T15:03:06.123Z,0.80
2022-10-15T15:05:45.952Z,0.80
2022-10-15T15:08:13.986Z,0.97
2022-10-15T15:10:42.120Z,0.60
2022-10-15T15:13:12.731Z,0.80
2022-10-15T15:15:42.211Z,0.80
2022-10-15T15:18:12.460Z,0.70
2022-10-15T15:20:43.200Z,0.90
2022-10-15T15:23:14.871Z,0.70
2022-10-15T15:25:43.016Z,0.77
2022-10-15T15:28:14.483Z,0.80
2022-10-15T15:30:44.007Z,0.80
2022-10-15T15:33:14.868Z,1.07
2022-10-15T15:35:50.581Z,0.97
2022-10-15T15:38:18.807Z,1.13
2022-10-15T15:40:46.843Z,0.80
2022-10-15T15:43:17.115Z,0.90
2022-10-15T15:45:44.972Z,1.63
2022-10-15T15:48:14.181Z,1.00
2022-10-15T15:50:42.135Z,0.97
2022-10-15T15:53:12.500Z,0.80
2022-10-15T15:55:40.271Z,1.30
2022-10-15T15:58:08.013Z,1.03
2022-10-15T16:00:35.786Z,1.20
2022-10-15T16:03:03.562Z,1.00
2022-10-15T16:05:32.690Z,1.33
2022-10-15T16:08:00.423Z,1.00
2022-10-15T16:10:28.156Z,1.23
2022-10-15T16:12:56.554Z,1.10
2022-10-15T16:15:24.346Z,1.60
2022-10-15T16:17:52.050Z,1.20
2022-10-15T16:20:20.785Z,1.47
2022-10-15T16:22:52.224Z,1.37
2022-10-15T16:25:21.453Z,1.87
2022-10-15T16:27:51.681Z,1.33
2022-10-15T16:30:20.416Z,1.20
2022-10-15T16:32:48.123Z,1.63
2022-10-15T16:35:15.988Z,1.20
2022-10-15T16:37:43.792Z,1.50
2022-10-15T16:40:13.665Z,1.73
2022-10-15T16:42:41.513Z,1.60
2022-10-15T16:45:11.278Z,1.60
2022-10-15T16:47:39.046Z,1.60
2022-10-15T16:50:07.931Z,1.80
2022-10-15T16:52:36.088Z,1.60
2022-10-15T16:55:03.966Z,1.30
2022-10-15T16:57:33.095Z,1.83
2022-10-15T17:00:01.058Z,1.47
2022-10-15T17:02:28.913Z,1.50
2022-10-15T17:04:56.704Z,1.67
2022-10-15T17:07:24.700Z,1.53
2022-10-15T17:09:52.628Z,1.70
2022-10-15T17:12:20.406Z,1.80
2022-10-15T17:14:51.981Z,1.30
2022-10-15T17:17:20.195Z,1.80
2022-10-15T17:19:47.936Z,1.60
2022-10-15T17:22:15.730Z,1.70
2022-10-15T17:24:43.553Z,1.60
2022-10-15T17:27:11.364Z,1.40
2022-10-15T17:29:39.337Z,1.50
2022-10-15T17:32:08.482Z,1.30
2022-10-15T17:34:36.491Z,1.20
2022-10-15T17:37:04.253Z,1.23
2022-10-15T17:39:32.049Z,1.40
2022-10-15T17:41:59.800Z,1.27
2022-10-15T17:44:27.956Z,1.33
2022-10-15T17:46:55.712Z,1.20
2022-10-15T17:49:24.837Z,1.30
2022-10-15T17:51:52.585Z,1.23
2022-10-15T17:54:20.351Z,1.37
2022-10-15T17:56:48.601Z,1.07
2022-10-15T17:59:16.500Z,1.40
2022-10-15T18:01:57.806Z,1.77
2022-10-15T18:04:28.680Z,1.60
2022-10-15T18:06:56.479Z,1.43
2022-10-15T18:09:24.260Z,1.80
2022-10-15T18:11:52.232Z,1.30
2022-10-15T18:16:48.667Z,1.90
2022-10-15T18:19:16.488Z,1.50
2022-10-15T18:21:48.676Z,1.20
2022-10-15T18:24:19.914Z,1.80
2022-10-15T18:26:48.160Z,1.73
2022-10-15T18:29:15.948Z,1.70
2022-10-15T18:31:43.676Z,1.50
2022-10-15T18:34:11.595Z,1.70
2022-10-15T18:36:41.644Z,1.23
2022-10-15T18:39:11.039Z,1.50
2022-10-15T18:41:40.136Z,1.37
2022-10-15T18:44:12.703Z,1.40
2022-10-15T18:46:42.100Z,1.40
2022-10-15T18:49:09.977Z,1.33
2022-10-15T18:51:37.848Z,1.40
2022-10-15T18:54:06.947Z,1.40
2022-10-15T18:56:36.206Z,1.53
2022-10-15T18:59:04.088Z,1.10
2022-10-15T19:01:33.942Z,1.93
2022-10-15T19:04:03.850Z,1.03
2022-10-15T19:06:35.441Z,1.20
2022-10-15T19:09:05.500Z,1.17
2022-10-15T19:11:34.824Z,1.20
2022-10-15T19:14:04.544Z,1.17
2022-10-15T19:16:32.416Z,1.30
2022-10-15T19:19:01.375Z,1.00
2022-10-15T19:21:29.224Z,1.07
2022-10-15T19:23:56.992Z,1.00
2022-10-15T19:26:25.251Z,1.30
2022-10-15T19:28:53.425Z,1.60
2022-10-15T19:31:25.441Z,1.30
2022-10-15T19:33:53.668Z,1.20
2022-10-15T19:36:23.628Z,1.13
2022-10-15T19:38:51.781Z,1.33
2022-10-15T19:41:19.996Z,1.20
2022-10-15T19:43:47.935Z,1.10
2022-10-15T19:46:15.778Z,1.33
2022-10-15T19:48:44.925Z,1.33
2022-10-15T19:51:12.887Z,1.13
2022-10-15T19:53:40.764Z,1.67
2022-10-15T19:56:11.452Z,1.50
2022-10-15T19:58:39.175Z,1.30
2022-10-15T20:01:07.113Z,1.20
2022-10-15T20:06:07.088Z,1.07
2022-10-15T20:08:35.584Z,1.33
2022-10-15T20:11:07.136Z,1.10
2022-10-15T20:13:36.432Z,1.50
2022-10-15T20:16:05.923Z,1.30
2022-10-15T20:18:34.204Z,1.17
2022-10-15T20:21:06.972Z,1.27
2022-10-15T20:23:37.613Z,1.23
2022-10-15T20:26:06.410Z,1.30
2022-10-15T20:28:37.025Z,1.00
2022-10-15T20:31:08.721Z,1.10
2022-10-15T20:33:37.240Z,1.27
2022-10-15T20:36:06.300Z,1.20
2022-10-15T20:38:34.595Z,1.00
2022-10-15T20:41:09.180Z,1.00
2022-10-15T20:43:37.225Z,1.70
2022-10-15T20:46:07.476Z,1.33
2022-10-15T20:48:36.005Z,1.10
2022-10-15T20:51:04.989Z,1.27
2022-10-15T20:53:32.804Z,1.50
2022-10-15T20:56:01.404Z,0.90
2022-10-15T20:58:31.371Z,1.40
2022-10-15T21:00:59.357Z,1.30
2022-10-15T21:03:27.208Z,1.20
2022-10-15T21:05:55.009Z,1.30
2022-10-15T21:08:24.238Z,1.00
2022-10-15T21:10:52.034Z,1.10
2022-10-15T21:13:19.847Z,0.97
2022-10-15T21:15:48.973Z,1.10
2022-10-15T21:18:19.032Z,1.10
2022-10-15T21:20:48.598Z,1.07
2022-10-15T21:23:16.354Z,1.30
2022-10-15T21:25:44.100Z,1.00
2022-10-15T21:28:11.819Z,1.23
2022-10-15T21:30:40.748Z,1.00
2022-10-15T21:33:09.834Z,1.40
2022-10-15T21:35:37.587Z,1.00
2022-10-15T21:38:05.362Z,1.10
2022-10-15T21:40:33.211Z,1.00
2022-10-15T21:43:00.965Z,1.00
2022-10-15T21:45:28.766Z,1.00
2022-10-15T21:47:56.699Z,1.10
2022-10-15T21:50:25.783Z,0.97
2022-10-15T21:52:53.631Z,1.20
2022-10-15T21:55:21.437Z,1.07
2022-10-15T21:57:49.173Z,0.90
2022-10-15T22:00:18.295Z,1.10
2022-10-15T22:02:50.412Z,1.33
2022-10-15T22:05:18.287Z,1.17
2022-10-15T22:07:47.607Z,0.90
2022-10-15T22:10:15.521Z,0.77
2022-10-15T22:12:43.236Z,0.90
2022-10-15T22:15:11.476Z,0.73
2022-10-15T22:17:39.226Z,0.80
2022-10-15T22:20:08.012Z,0.87
2022-10-15T22:22:35.804Z,0.90
2022-10-15T22:25:05.231Z,0.70
2022-10-15T22:27:33.021Z,1.10
2022-10-15T22:30:00.808Z,0.80
2022-10-15T22:32:28.879Z,0.80
2022-10-15T22:34:56.675Z,0.90
2022-10-15T22:37:24.448Z,0.73
2022-10-15T22:39:52.217Z,1.30
2022-10-15T22:42:21.356Z,1.10
2022-10-15T22:44:49.109Z,1.20
2022-10-15T22:47:16.872Z,1.30
2022-10-15T22:49:44.588Z,1.23
2022-10-15T22:52:12.376Z,1.20
2022-10-15T22:54:40.126Z,1.33
2022-10-15T22:57:07.960Z,1.40
2022-10-15T22:59:37.299Z,1.40
2022-10-15T23:02:05.126Z,1.20
2022-10-15T23:04:32.985Z,1.30
2022-10-15T23:07:00.706Z,1.13
2022-10-15T23:09:28.530Z,1.00
2022-10-15T23:11:56.297Z,1.13
2022-10-15T23:14:24.023Z,1.10
2022-10-15T23:16:53.139Z,1.20
2022-10-15T23:19:22.924Z,1.00
2022-10-15T23:21:52.806Z,1.30
2022-10-15T23:24:22.753Z,1.10
2022-10-15T23:26:51.005Z,1.27
2022-10-15T23:29:20.039Z,1.53
2022-10-15T23:31:48.369Z,1.37
2022-10-15T23:34:19.815Z,1.47
2022-10-15T23:36:49.523Z,1.40
2022-10-15T23:39:19.407Z,1.10
2022-10-15T23:41:47.189Z,1.30
2022-10-15T23:44:15.154Z,1.10
2022-10-15T23:46:43.204Z,1.00
2022-10-15T23:49:11.055Z,1.00
2022-10-15T23:51:40.816Z,1.20
2022-10-15T23:54:13.944Z,2.07
2022-10-15T23:56:41.821Z,1.30
2022-10-15T23:59:09.739Z,1.10
